• Join FlightAware (Why Join?)
  • Login
  • US Flag 
03:52AM EST


 

Airport Tracker/Info


-or-


 

Live Flight TrackerFlight Track Log ✈ AAY842 ✈ 07-Apr-2014 ✈ KPIE - KSYR

Flight Track Log - Related Links

Times and Time Zones

All times are in EDT time to prevent confusion due to time zone crossing. See the AAY842 flight status page for this flight to view local times or setup timezone preferences in your user account.

Time Position Orientation Groundspeed Altitude Reporting Facility
EDT Latitude Longitude Course Direction KTS MPH feet Rate Location/Type
03:57PM 27.8833 -82.6833 180° South 139 160 1,600  Level Tampa TRACON
03:58PM 27.8333 -82.6833 180° South 210 242 3,400 2,155 Climbing Tampa TRACON
04:00PM 27.9017 -82.7328 327° Northwest 198 228 6,700 2,392 Climbing Jacksonville Center
04:01PM 27.9869 -82.7022 18° North 254 292 9,500 2,086 Climbing Jacksonville Center
04:07PM 28.6448 -82.6124 358° North 442 509 21,200 1,730 Climbing FlightAware ADS-B
04:10PM 29.0243 -82.6175 360° North 461 531 25,300 1,267 Climbing FlightAware ADS-B
04:11PM 29.1333 -82.6182 360° North 467 537 26,100 1,231 Climbing FlightAware ADS-B
04:11PM 29.2137 -82.6182 360° North 470 541 26,900 1,091 Climbing FlightAware ADS-B
04:13PM 29.3967 -82.6168 North 483 556 28,300 938 Climbing FlightAware ADS-B
04:13PM 29.4995 -82.6155 North 488 562 28,900 769 Climbing FlightAware ADS-B
04:14PM 29.5787 -82.6110 North 497 572 29,300 1,120 Climbing FlightAware ADS-B
04:15PM 29.6710 -82.6041 North 487 560 30,300 2,000 Climbing FlightAware ADS-B
04:15PM 29.7780 -82.5972 North 454 522 32,300 1,765 Climbing FlightAware ADS-B
04:16PM 29.8529 -82.5928 North 456 525 32,800 830 Climbing FlightAware ADS-B
04:17PM 29.9756 -82.5854 North 453 521 33,600 818 Climbing FlightAware ADS-B
04:17PM 30.0379 -82.5815 North 454 522 34,000 938 Climbing FlightAware ADS-B
04:18PM 30.1058 -82.5774 North 455 524 34,600 818 Climbing FlightAware ADS-B
04:19PM 30.1770 -82.5730 North 457 526 34,900 825 Climbing FlightAware ADS-B
04:19PM 30.2763 -82.5668 North 454 522 35,700 848 Climbing FlightAware ADS-B
04:20PM 30.3603 -82.5616 North 453 521 36,200 742 Climbing FlightAware ADS-B
04:21PM 30.4644 -82.5533 North 455 524 36,800 533 Climbing FlightAware ADS-B
04:22PM 30.5603 -82.5303 17° North 471 542 37,000 143 Climbing FlightAware ADS-B
04:22PM 30.6320 -82.5025 19° North 469 540 37,000  Level FlightAware ADS-B
04:23PM 30.7873 -82.4415 19° North 473 544 37,000 -40 Level FlightAware ADS-B
04:25PM 30.9461 -82.3814 19° North 461 531 36,900 -43 Descending Jacksonville Center
04:26PM 31.0692 -82.3297 20° North 461 531 36,900 50 Level Jacksonville Center
04:27PM 31.1922 -82.2831 18° North 461 531 37,000 50 Climbing Jacksonville Center
04:28PM 31.3131 -82.2408 17° North 456 525 37,000  Level Jacksonville Center
04:29PM 31.4381 -82.1889 20° North 462 532 37,000  Level Jacksonville Center
04:31PM 31.6733 -82.0894 20° North 468 539 37,000  Level Jacksonville Center
04:32PM 31.8128 -82.0344 19° North 468 539 37,000  Level Jacksonville Center
04:33PM 31.9294 -81.9892 18° North 473 544 37,000  Level Jacksonville Center
04:34PM 32.0689 -81.9267 21° North 486 559 37,000 50 Level Jacksonville Center
04:35PM 32.1978 -81.8639 22° Northeast 491 565 37,100 50 Climbing Jacksonville Center
04:36PM 32.3142 -81.8086 22° Northeast 498 573 37,100 -33 Level Jacksonville Center
04:38PM 32.5803 -81.6819 22° Northeast 492 566 37,000 -33 Descending Jacksonville Center
04:39PM 32.7114 -81.6186 22° Northeast 492 566 37,000  Level Jacksonville Center
04:40PM 32.8400 -81.5550 23° Northeast 492 566 37,000  Level Jacksonville Center
04:46PM 33.6498 -81.1565 23° Northeast 509 586 37,000  Level FlightAware ADS-B (KCDN)
04:47PM 33.8283 -81.0681 22° Northeast 511 588 37,000  Level FlightAware ADS-B (KCDN)
04:48PM 33.9265 -81.0201 22° Northeast 511 588 37,000  Level FlightAware ADS-B (KCDN)
04:49PM 34.0218 -80.9748 22° Northeast 514 592 37,000  Level FlightAware ADS-B (KCDN)
04:50PM 34.1258 -80.9249 22° Northeast 516 594 37,000  Level FlightAware ADS-B (KCDN)
04:50PM 34.1955 -80.8912 22° Northeast 515 593 37,000  Level FlightAware ADS-B (KCDN)
04:51PM 34.2867 -80.8470 22° Northeast 513 590 37,000  Level FlightAware ADS-B (KCDN)
04:51PM 34.3626 -80.8103 22° Northeast 513 590 37,000  Level FlightAware ADS-B (KCDN)
04:52PM 34.4556 -80.7652 22° Northeast 513 590 37,000  Level FlightAware ADS-B (KCDN)
04:53PM 34.5224 -80.7327 22° Northeast 512 589 37,000  Level FlightAware ADS-B (KCDN)
04:53PM 34.5973 -80.6961 22° Northeast 513 590 37,000  Level FlightAware ADS-B (KCDN)
04:54PM 34.6894 -80.6512 22° Northeast 512 589 37,000  Level FlightAware ADS-B (KCDN)
04:55PM 34.7945 -80.5998 22° Northeast 516 594 37,000  Level FlightAware ADS-B (KCDN)
04:55PM 34.8901 -80.5528 22° Northeast 518 596 37,000  Level FlightAware ADS-B (KCDN)
04:57PM 35.0367 -80.4822 22° Northeast 513 590 37,000  Level Atlanta Center
04:58PM 35.1703 -80.4156 22° Northeast 513 590 37,000  Level Atlanta Center
04:59PM 35.3039 -80.3486 22° Northeast 506 582 37,000  Level Atlanta Center
05:00PM 35.4375 -80.2814 22° Northeast 506 582 37,000  Level Atlanta Center
05:01PM 35.5711 -80.2167 22° Northeast 511 588 37,000  Level Atlanta Center
05:02PM 35.7064 -80.1439 24° Northeast 511 588 37,000  Level Atlanta Center
05:04PM 35.9806 -80.0119 21° North 525 604 37,000  Level Washington Center
05:05PM 36.1108 -79.9269 28° Northeast 525 604 37,000  Level Washington Center
05:06PM 36.2397 -79.8258 32° Northeast 533 613 37,000  Level Washington Center
05:07PM 36.3533 -79.7364 32° Northeast 541 623 37,000  Level Washington Center
05:08PM 36.5014 -79.6178 33° Northeast 536 617 37,000  Level Washington Center
05:09PM 36.6172 -79.5256 33° Northeast 542 624 37,000  Level Washington Center
05:10PM 36.7436 -79.4256 32° Northeast 542 624 37,000  Level Washington Center
05:11PM 36.8697 -79.3253 32° Northeast 542 624 37,000  Level Washington Center
05:16PM 37.5854 -78.7455 33° Northeast 548 631 37,000  Level FlightAware ADS-B (KCHO)
05:17PM 37.7312 -78.6258 33° Northeast 546 628 37,000  Level FlightAware ADS-B (KCHO)
05:18PM 37.8241 -78.5496 33° Northeast 546 628 37,000  Level FlightAware ADS-B (KCHO)
05:18PM 37.8871 -78.4974 33° Northeast 547 629 37,000  Level FlightAware ADS-B (KCHO)
05:19PM 37.9509 -78.4446 33° Northeast 547 629 37,000  Level FlightAware ADS-B (KCHO)
05:19PM 38.0159 -78.3909 33° Northeast 548 631 37,000  Level FlightAware ADS-B (KCHO)
05:20PM 38.1002 -78.3208 33° Northeast 547 629 37,000  Level FlightAware ADS-B (KCHO)
05:21PM 38.1846 -78.2502 34° Northeast 547 629 37,000  Level FlightAware ADS-B (KCHO)
05:21PM 38.2557 -78.1901 34° Northeast 544 626 37,000  Level FlightAware ADS-B (KCHO)
05:22PM 38.3400 -78.1194 33° Northeast 543 625 37,000  Level FlightAware ADS-B (KCHO)
05:23PM 38.4116 -78.0595 33° Northeast 542 624 37,000  Level FlightAware ADS-B (KDAA)
05:23PM 38.4833 -77.9992 33° Northeast 543 625 37,000  Level FlightAware ADS-B (KDAA)
05:24PM 38.5465 -77.9460 33° Northeast 543 625 37,000  Level FlightAware ADS-B (KDAA)
05:24PM 38.6099 -77.8951 29° Northeast 537 618 37,000  Level FlightAware ADS-B (KDAA)
05:25PM 38.6883 -77.8452 23° Northeast 525 604 37,000  Level FlightAware ADS-B (KDAA)
05:26PM 38.8121 -77.7856 20° North 519 597 37,000  Level FlightAware ADS-B (KDAA)
05:26PM 38.8795 -77.7539 20° North 519 597 37,000  Level FlightAware ADS-B (KDAA)
05:27PM 38.9473 -77.7218 20° North 517 595 37,000  Level FlightAware ADS-B (KDAA)
05:27PM 39.0150 -77.6898 20° North 517 595 37,000  Level FlightAware ADS-B (KDAA)
05:28PM 39.0830 -77.6577 20° North 518 596 37,000  Level FlightAware ADS-B (KDAA)
05:28PM 39.0958 -77.6516 20° North 519 597 37,000  Level FlightAware ADS-B
05:28PM 39.1495 -77.6262 20° North 520 598 37,000  Level FlightAware ADS-B (KDAA)
05:28PM 39.1770 -77.6132 20° North 520 598 37,000  Level FlightAware ADS-B
05:29PM 39.2146 -77.5953 20° North 520 598 37,000  Level FlightAware ADS-B (KDAA)
05:29PM 39.2413 -77.5826 20° North 521 600 37,000  Level FlightAware ADS-B
05:29PM 39.2799 -77.5642 20° North 521 600 37,000  Level FlightAware ADS-B (KDAA)
05:29PM 39.3353 -77.5377 20° North 522 601 37,000  Level FlightAware ADS-B
05:30PM 39.3503 -77.5306 20° North 522 601 37,000  Level FlightAware ADS-B (KDAA)
05:30PM 39.4211 -77.4968 20° North 523 602 37,000  Level FlightAware ADS-B (KDAA)
05:31PM 39.4682 -77.4742 20° North 523 602 37,000  Level FlightAware ADS-B (KDAA)
05:31PM 39.4956 -77.4611 20° North 525 604 37,000  Level FlightAware ADS-B
05:31PM 39.5467 -77.4364 20° North 523 602 37,000  Level FlightAware ADS-B (KDAA)
05:31PM 39.5708 -77.4248 20° North 525 604 37,000  Level FlightAware ADS-B
05:31PM 39.5762 -77.4223 20° North 523 602 37,000  Level FlightAware ADS-B (KDAA)
05:32PM 39.6425 -77.3904 20° North 525 604 37,000  Level FlightAware ADS-B (YXSG)
05:32PM 39.6851 -77.3699 20° North 523 602 37,000  Level FlightAware ADS-B (KDAA)
05:32PM 39.7204 -77.3529 20° North 525 604 37,000  Level FlightAware ADS-B
05:33PM 39.8197 -77.3050 20° North 525 604 37,000  Level FlightAware ADS-B
05:34PM 39.8370 -77.2966 20° North 525 604 37,000  Level FlightAware ADS-B
05:35PM 40.0445 -77.1959 21° North 528 608 37,000 -278 Level FlightAware ADS-B (KPHL)
05:35PM 40.1452 -77.1464 21° North 525 604 36,500 -805 Descending FlightAware ADS-B
05:36PM 40.2418 -77.0991 21° North 525 604 35,900 -923 Descending FlightAware ADS-B
05:37PM 40.3277 -77.0631 14° North 517 595 35,300 -987 Descending FlightAware ADS-B
05:37PM 40.4216 -77.0365 12° North 515 593 34,600 -1,024 Descending FlightAware ADS-B
05:38PM 40.5108 -77.0110 12° North 515 593 33,900 -900 Descending FlightAware ADS-B
05:39PM 40.5976 -76.9864 12° North 514 592 33,400 -1,013 Descending FlightAware ADS-B (KPHL)
05:39PM 40.6983 -76.9580 12° North 502 578 32,600 -1,068 Descending FlightAware ADS-B
05:40PM 40.7092 -76.9549 14° North 494 568 32,100 -878 Descending FlightAware ADS-B (KPHL)
05:41PM 40.8710 -76.9030 15° North 480 552 31,400 -857 Descending FlightAware ADS-B
05:41PM 40.9341 -76.8813 15° North 468 539 31,000 -1,100 Descending FlightAware ADS-B (KPHL)
05:42PM 40.9948 -76.8602 15° North 458 527 30,300 -2,034 Descending FlightAware ADS-B (KPHL)
05:42PM 41.0540 -76.8400 14° North 464 534 29,000 -2,441 Descending FlightAware ADS-B
05:43PM 41.1170 -76.8180 14° North 456 525 27,900 -2,087 Descending FlightAware ADS-B
05:43PM 41.1422 -76.8097 15° North 450 518 27,400 -1,946 Descending FlightAware ADS-B (KPHL)
05:43PM 41.1910 -76.7930 14° North 443 510 26,700 -2,000 Descending FlightAware ADS-B
05:44PM 41.2133 -76.7851 15° North 437 503 25,900 -1,800 Descending FlightAware ADS-B (KPHL)
05:44PM 41.2490 -76.7730 14° North 435 501 25,800 -1,886 Descending FlightAware ADS-B
05:44PM 41.3070 -76.7520 14° North 428 493 24,800 -1,909 Descending FlightAware ADS-B
05:45PM 41.3760 -76.7290 14° North 419 482 23,700 -1,750 Descending FlightAware ADS-B
05:45PM 41.4420 -76.7050 14° North 415 478 22,700 -1,352 Descending FlightAware ADS-B
05:46PM 41.5080 -76.6820 14° North 407 468 22,100 -1,075 Descending FlightAware ADS-B
05:47PM 41.5620 -76.6630 14° North 404 465 21,500 -985 Descending FlightAware ADS-B
05:47PM 41.6270 -76.6410 14° North 402 463 21,000 -417 Descending FlightAware ADS-B
05:48PM 41.6930 -76.6180 14° North 404 465 21,000 -185 Level FlightAware ADS-B
05:48PM 41.7460 -76.5990 14° North 407 468 20,800 -1,017 Descending FlightAware ADS-B
05:49PM 41.8010 -76.5800 14° North 401 461 20,000 -1,433 Descending FlightAware ADS-B
05:49PM 41.8630 -76.5570 14° North 393 452 19,200 -1,364 Descending FlightAware ADS-B
05:50PM 41.9170 -76.5390 14° North 388 447 18,500 -1,477 Descending FlightAware ADS-B
05:50PM 41.9780 -76.5170 14° North 383 441 17,600 -1,378 Descending FlightAware ADS-B
05:51PM 42.0360 -76.4960 15° North 377 434 16,800 -1,378 Descending FlightAware ADS-B
05:52PM 42.1030 -76.4720 14° North 372 428 15,900 -1,385 Descending FlightAware ADS-B
05:52PM 42.1470 -76.4570 14° North 369 425 15,300 -1,385 Descending FlightAware ADS-B
05:53PM 42.2100 -76.4340 15° North 365 420 14,400 -1,343 Descending FlightAware ADS-B
05:53PM 42.2600 -76.4160 15° North 362 417 13,800 -1,254 Descending FlightAware ADS-B
05:54PM 42.3180 -76.3950 15° North 358 412 13,000 -1,273 Descending FlightAware ADS-B
05:54PM 42.3660 -76.3780 15° North 351 404 12,400 -1,273 Descending FlightAware ADS-B
05:55PM 42.4220 -76.3580 14° North 345 397 11,600 -1,182 Descending FlightAware ADS-B
05:56PM 42.4680 -76.3410 14° North 347 399 11,100 -400 Descending FlightAware ADS-B
05:57PM 42.5640 -76.3070 14° North 365 420 11,000 -62 Descending FlightAware ADS-B
05:57PM 42.6230 -76.2850 15° North 370 426 11,000 -1,020 Level FlightAware ADS-B
05:59PM 42.7989 -76.2369 14° North 328 377 8,400 -1,409 Descending Boston Center
05:59PM 42.8217 -76.2400 354° North 325 374 7,900 -1,105 Descending Boston Center
06:00PM 42.8958 -76.2825 337° Northwest 291 335 7,000 -491 Descending Boston Center
06:01PM 42.9450 -76.3208 330° Northwest 243 280 7,000  Level Boston Center
06:01PM 42.9556 -76.3333 319° Northwest 258 297 7,000 -1,313 Level Boston Center
06:02PM 42.9944 -76.3950 311° West 242 278 5,600 -1,075 Descending Boston Center
06:03PM 43.0339 -76.4514 314° West 245 282 5,100 -500 Descending Boston Center
06:03PM 43.0458 -76.4667 317° Northwest 243 280 5,000 -1,063 Descending Boston Center
06:04PM 43.1000 -76.1000 14° North  Level FlightAware Approximate
06:04PM 43.0919 -76.4628 North 219 252 3,700  Level Boston Center
06:05PM 43.1112 -76.1063 14° North  Level Estimated
06:05PM 43.0986 -76.4108 80° East 166 191 3,000  Level Boston Center
06:05PM 43.1008 -76.4000 74° East 186 214 2,800 -600 Descending Boston Center
06:06PM 43.1000 -76.3528 91° East 142 163 2,400 -400 Descending Boston Center
06:06PM 43.1011 -76.3439 80° East 163 188 2,400  Level Boston Center
06:07PM 43.1028 -76.2856 88° East 156 180 2,400 -59 Level Boston Center
06:08PM 43.1039 -76.2431 88° East 139 160 2,300 -381 Descending Boston Center
06:09PM 43.1050 -76.2253 85° East 144 166 2,000 -677 Descending Boston Center
06:09PM 43.1053 -76.1967 89° East 123 142 1,600 -667 Descending Boston Center
06:10PM 43.1067 -76.1786 84° East 133 153 1,300 -700 Descending Boston Center
06:10PM 43.1072 -76.1478 89° East 124 143 900 -689 Descending Boston Center
06:11PM 43.1089 -76.1319 82° East 127 146 600 -720 Descending Boston Center
06:13PM 43.1000 -76.1000 14° North  Level FlightAware Approximate
06:20PM 43.1112 -76.1063 14° North  Level Estimated